Portada
METAR-TAF:

METAR-TAF

Aeroports :

Manistee, Michigan, Estats Units d'Amèrica

Manistee County-Blacker Airport

latitud: 44-16N, longitud: 086-15W, altitud: 189 m

Observació

L'informe es va fer fa 54 minuts, a les 20:56 UTC
Vent 10 kt del Nord-Oest
Temperatura 14°C
Humitat 24%
Pressió 1027 hPa
Visibilitat: 16.1 km
Cel clar

METAR: KMBL 222056Z AUTO 32010KT 10SM CLR 14/M06 A3033 RMK AO2 SLP294 T01391056 58018

Hora: 17:50 (21:50 UTC)

Pronòstic

L'informe es va fer fa 4 hores i 13 minuts, a les 17:37 UTC
Pronòstic vàlid del 22 a les 18 UTC al 23 a les 18 UTC
Vent 5 kt del Nord-Oest
Visibilitat: 10 km
Escasses núvols a una alçada de 25000 ft
A partir de les 23 a les 0100 UTC
Vent kt del Nord
Visibilitat: 10 km
Escasses núvols a una alçada de 25000 ft
A partir de les 23 a les 1400 UTC
Vent 4 kt amb direcció variable
Visibilitat: 10 km
Escasses núvols a una alçada de 25000 ft

TAF: KMBL 221737Z 2218/2318 31005KT P6SM FEW250 FM230100 00000KT P6SM FEW250 FM231400 VRB04KT P6SM FEW250

Observacions i pronòstics meteorològics de més de 4000 aeroports (METAR i TAF).

Les estacions disponibles són els punts grocs i vermells al mapa.

Posi el ratolí al punt desitjat per veure el nom de l'estació.

Feu clic per veure les observacions i els pronòstics meteorològics.

Per canviar el mapa: feu clic els botons verds amb una creu de color negre per apropar; al botó verd amb un guió per allunyar la imatge; o en les fletxes verdes per a mapes adjacents.


METAR-TAF: